Time;durP1;ratioP1;P1;durP2;ratioP2;P2;SDS_P1;SDS_P2;PMS_P1;PMS_P2;Temp;Humidity;BMP_temperature;BMP_pressure;BME280_temperature;BME280_humidity;BME280_pressure;Samples;Min_cycle;Max_cycle;Signal;HPM_P1;HPM_P2
2021/06/07 00:00:15;;;;;;;53.78;31.02;;;14.30;99.90;;;;;;2113351;28;20270;-67
2021/06/07 00:01:19;;;;;;;51.63;30.42;;;14.40;99.90;;;;;;2113169;28;20174;-67
2021/06/07 00:02:20;;;;;;;51.13;30.30;;;14.30;99.90;;;;;;2113770;28;20174;-67
2021/06/07 00:03:21;;;;;;;51.10;29.05;;;14.30;99.90;;;;;;2113639;28;20640;-67
2021/06/07 00:04:23;;;;;;;46.87;28.63;;;14.30;99.90;;;;;;2113887;28;20185;-67
2021/06/07 00:05:24;;;;;;;48.30;30.65;;;14.30;99.90;;;;;;2113811;28;20818;-67
2021/06/07 00:06:25;;;;;;;51.17;29.97;;;14.30;99.90;;;;;;2113334;28;20269;-67
2021/06/07 00:07:26;;;;;;;52.93;31.07;;;14.30;99.90;;;;;;2104826;28;20174;-67
2021/06/07 00:08:26;;;;;;;49.90;29.27;;;14.30;99.90;;;;;;2113332;28;20178;-68
2021/06/07 00:09:29;;;;;;;51.47;29.80;;;14.30;99.90;;;;;;2113664;28;20260;-68
2021/06/07 00:10:30;;;;;;;47.78;29.60;;;14.30;99.90;;;;;;2113928;28;20326;-67
2021/06/07 00:11:32;;;;;;;54.60;31.42;;;14.30;99.90;;;;;;2113026;28;20822;-67
2021/06/07 00:12:33;;;;;;;50.17;29.33;;;14.30;99.90;;;;;;2112842;28;20208;-67
2021/06/07 00:13:36;;;;;;;50.87;30.33;;;14.30;99.90;;;;;;2113149;28;20233;-67
2021/06/07 00:14:37;;;;;;;44.33;28.45;;;14.40;99.90;;;;;;2113270;28;20404;-67
2021/06/07 00:15:39;;;;;;;46.67;28.17;;;14.40;99.90;;;;;;2111260;28;20224;-67
2021/06/07 00:16:39;;;;;;;54.03;31.00;;;14.40;99.90;;;;;;2111941;28;20456;-66
2021/06/07 00:17:41;;;;;;;49.73;30.43;;;14.40;99.90;;;;;;2113137;28;20167;-67
2021/06/07 00:18:42;;;;;;;51.10;30.20;;;14.40;99.90;;;;;;2113212;28;20490;-67
2021/06/07 00:19:43;;;;;;;46.65;29.55;;;14.40;99.90;;;;;;2113611;28;20542;-67
2021/06/07 00:20:49;;;;;;;52.75;31.30;;;14.40;99.90;;;;;;2113822;28;20182;-67
2021/06/07 00:21:50;;;;;;;53.42;30.30;;;14.40;99.90;;;;;;2113746;28;20192;-67
2021/06/07 00:22:51;;;;;;;50.60;31.38;;;14.40;99.90;;;;;;2113514;28;20186;-67
2021/06/07 00:23:53;;;;;;;50.27;29.80;;;14.40;99.90;;;;;;2113753;28;20170;-67
2021/06/07 00:24:54;;;;;;;55.58;31.30;;;14.30;99.90;;;;;;2113861;28;20211;-67
2021/06/07 00:25:56;;;;;;;59.40;32.63;;;14.30;99.90;;;;;;2113542;28;20170;-67
2021/06/07 00:26:57;;;;;;;54.38;32.22;;;14.40;99.90;;;;;;2113127;28;20194;-68
2021/06/07 00:27:57;;;;;;;61.50;32.77;;;14.30;99.90;;;;;;2113041;28;20167;-68
2021/06/07 00:28:58;;;;;;;56.80;31.60;;;14.30;99.90;;;;;;2113751;28;20621;-67
2021/06/07 00:29:59;;;;;;;53.58;31.33;;;14.30;99.90;;;;;;2113693;28;20254;-67
2021/06/07 00:31:02;;;;;;;63.40;33.10;;;14.40;99.90;;;;;;2113724;28;20170;-67
2021/06/07 00:32:03;;;;;;;67.65;34.30;;;14.40;99.90;;;;;;2112967;28;20541;-67
2021/06/07 00:33:04;;;;;;;61.42;33.30;;;14.40;99.90;;;;;;2112797;28;20729;-67
2021/06/07 00:34:06;;;;;;;59.47;32.65;;;14.40;99.90;;;;;;2113688;28;20206;-67
2021/06/07 00:35:07;;;;;;;60.97;32.13;;;14.30;99.90;;;;;;2113807;28;20166;-67
2021/06/07 00:36:09;;;;;;;55.45;31.90;;;14.30;99.90;;;;;;2113475;28;20180;-67
2021/06/07 00:37:10;;;;;;;57.60;31.63;;;14.30;99.90;;;;;;2113846;28;20174;-67
2021/06/07 00:38:10;;;;;;;53.37;29.73;;;14.30;99.90;;;;;;2113630;28;20177;-67
2021/06/07 00:39:14;;;;;;;53.00;30.73;;;14.30;99.90;;;;;;2113109;28;20231;-67
2021/06/07 00:40:16;;;;;;;49.08;29.02;;;14.30;99.90;;;;;;2113148;28;20673;-67
2021/06/07 00:41:19;;;;;;;51.08;30.23;;;14.30;99.90;;;;;;2113665;28;20167;-68
2021/06/07 00:42:20;;;;;;;51.35;29.23;;;14.30;99.90;;;;;;2113494;28;20174;-67
2021/06/07 00:43:21;;;;;;;52.70;29.57;;;14.40;99.90;;;;;;2113561;28;20222;-67
2021/06/07 00:44:23;;;;;;;56.50;31.23;;;14.40;99.90;;;;;;2113701;28;20183;-67
2021/06/07 00:45:28;;;;;;;55.95;31.15;;;14.40;99.90;;;;;;2113888;28;20261;-67
2021/06/07 00:46:28;;;;;;;57.92;30.88;;;14.30;99.90;;;;;;2113646;28;20186;-67
2021/06/07 00:47:30;;;;;;;59.00;32.07;;;14.30;99.90;;;;;;2113603;28;20202;-67
2021/06/07 00:48:32;;;;;;;63.97;33.65;;;14.40;99.90;;;;;;2114322;28;20188;-67
2021/06/07 00:49:33;;;;;;;52.78;29.13;;;14.30;99.90;;;;;;2114305;28;20178;-67
2021/06/07 00:51:07;;;;;;;51.47;30.40;;;14.30;99.90;;;;;;2114740;28;20660;-67
2021/06/07 00:52:07;;;;;;;59.38;31.00;;;14.30;99.90;;;;;;2112907;28;20214;-66
2021/06/07 00:53:13;;;;;;;54.60;29.40;;;14.30;99.90;;;;;;2114792;28;20572;-67
2021/06/07 00:54:16;;;;;;;54.03;29.40;;;14.40;99.90;;;;;;2115296;28;20576;-68
2021/06/07 00:55:16;;;;;;;51.03;29.02;;;14.40;99.90;;;;;;2114637;28;20175;-66
2021/06/07 00:56:17;;;;;;;49.67;28.50;;;14.40;99.90;;;;;;2114756;28;20190;-67
2021/06/07 00:57:18;;;;;;;44.97;26.87;;;14.40;99.90;;;;;;2114603;28;20202;-67
2021/06/07 00:58:22;;;;;;;52.57;29.07;;;14.40;99.90;;;;;;2114676;28;20605;-67
2021/06/07 00:59:23;;;;;;;51.33;29.08;;;14.40;99.90;;;;;;2115182;28;20166;-68
2021/06/07 01:00:25;;;;;;;52.63;29.67;;;14.40;99.90;;;;;;2115288;28;20641;-67
2021/06/07 01:01:27;;;;;;;44.97;26.52;;;14.30;99.90;;;;;;2115192;28;21088;-67
2021/06/07 01:02:28;;;;;;;50.38;29.40;;;14.40;99.90;;;;;;2114479;28;20175;-67
2021/06/07 01:03:30;;;;;;;44.73;26.83;;;14.40;99.90;;;;;;2114523;28;20178;-67
2021/06/07 01:04:31;;;;;;;42.28;26.23;;;14.40;99.90;;;;;;2115401;28;20174;-67
2021/06/07 01:05:32;;;;;;;51.60;27.70;;;14.30;99.90;;;;;;2114658;28;20213;-67
2021/06/07 01:06:34;;;;;;;47.65;28.25;;;14.40;99.90;;;;;;2114815;28;20209;-68
2021/06/07 01:07:35;;;;;;;46.55;27.27;;;14.40;99.90;;;;;;2114668;28;20205;-67
2021/06/07 01:08:36;;;;;;;42.20;25.93;;;14.40;99.90;;;;;;2114633;28;20920;-67
2021/06/07 01:09:36;;;;;;;42.47;26.77;;;14.30;99.90;;;;;;2114611;28;20229;-67
2021/06/07 01:10:37;;;;;;;45.93;27.57;;;14.40;99.90;;;;;;2114725;28;20178;-67
2021/06/07 01:11:38;;;;;;;44.97;26.07;;;14.40;99.90;;;;;;2106112;28;20183;-67
2021/06/07 01:12:39;;;;;;;50.03;27.47;;;14.40;99.90;;;;;;2105948;28;20222;-68
2021/06/07 01:13:40;;;;;;;42.93;26.67;;;14.40;99.90;;;;;;2115033;27;20254;-67
2021/06/07 01:14:41;;;;;;;40.80;24.92;;;14.40;99.90;;;;;;2115260;28;20171;-68
2021/06/07 01:15:44;;;;;;;42.67;26.27;;;14.40;99.90;;;;;;2115124;28;20609;-67
2021/06/07 01:16:44;;;;;;;36.67;23.00;;;14.40;99.90;;;;;;2115256;28;20253;-66
2021/06/07 01:17:46;;;;;;;38.40;24.10;;;14.30;99.90;;;;;;2115126;28;20162;-67
2021/06/07 01:18:49;;;;;;;42.78;24.88;;;14.40;99.90;;;;;;2114508;28;20200;-68
2021/06/07 01:19:49;;;;;;;43.22;25.17;;;14.30;99.90;;;;;;2114503;28;20173;-68
2021/06/07 01:20:56;;;;;;;43.80;26.33;;;14.30;99.90;;;;;;2114583;28;20170;-67
2021/06/07 01:22:04;;;;;;;38.50;25.08;;;14.40;99.90;;;;;;2114564;28;20175;-67
2021/06/07 01:23:05;;;;;;;39.97;24.33;;;14.40;99.90;;;;;;2114920;28;20194;-67
2021/06/07 01:24:06;;;;;;;43.40;25.35;;;14.40;99.90;;;;;;2114987;28;20171;-67
2021/06/07 01:25:29;;;;;;;38.80;24.30;;;14.40;99.90;;;;;;2115045;28;20171;-67
2021/06/07 01:26:29;;;;;;;41.63;25.45;;;14.30;99.90;;;;;;2114943;28;20652;-67
2021/06/07 01:27:30;;;;;;;43.47;26.17;;;14.40;99.90;;;;;;2115161;28;20178;-67
2021/06/07 01:28:32;;;;;;;44.53;25.27;;;14.40;99.90;;;;;;2114381;28;20170;-67
2021/06/07 01:29:33;;;;;;;45.95;26.55;;;14.30;99.90;;;;;;2106167;28;20794;-67
2021/06/07 01:30:38;;;;;;;45.13;26.30;;;14.30;99.90;;;;;;2105844;28;20179;-68
2021/06/07 01:31:39;;;;;;;44.65;25.42;;;14.30;99.90;;;;;;2106704;28;20271;-67
2021/06/07 01:32:40;;;;;;;38.70;24.53;;;14.30;99.90;;;;;;2114001;28;20626;-67
2021/06/07 01:33:45;;;;;;;41.38;24.73;;;14.40;99.90;;;;;;2115061;28;20188;-67
2021/06/07 01:34:46;;;;;;;39.95;24.35;;;14.30;99.90;;;;;;2114882;28;20170;-67
2021/06/07 01:35:51;;;;;;;43.90;25.40;;;14.30;99.90;;;;;;2114369;28;20170;-67
2021/06/07 01:36:52;;;;;;;46.60;26.17;;;14.30;99.90;;;;;;2114409;28;20162;-68
2021/06/07 01:37:55;;;;;;;40.27;24.83;;;14.30;99.90;;;;;;2114426;28;20207;-67
2021/06/07 01:38:56;;;;;;;44.25;25.55;;;14.40;99.90;;;;;;2114271;28;20162;-67
2021/06/07 01:39:57;;;;;;;37.27;24.27;;;14.30;99.90;;;;;;2115014;28;20158;-67
2021/06/07 01:41:01;;;;;;;46.80;26.37;;;14.30;99.90;;;;;;2114846;28;20167;-67
2021/06/07 01:42:03;;;;;;;43.63;25.83;;;14.30;99.90;;;;;;2115009;28;20304;-67
2021/06/07 01:43:04;;;;;;;44.17;26.02;;;14.30;99.90;;;;;;2114696;28;20284;-67
2021/06/07 01:44:05;;;;;;;37.67;24.80;;;14.30;99.90;;;;;;2114407;28;20221;-67
2021/06/07 01:45:08;;;;;;;41.47;24.57;;;14.30;99.90;;;;;;2105826;28;20270;-67
2021/06/07 01:46:09;;;;;;;42.53;26.08;;;14.30;99.90;;;;;;2105941;28;20224;-67
2021/06/07 01:47:10;;;;;;;46.45;26.67;;;14.30;99.90;;;;;;2105726;28;20205;-66
2021/06/07 01:48:14;;;;;;;39.27;23.63;;;14.40;99.90;;;;;;2105883;28;20634;-67
2021/06/07 01:49:15;;;;;;;46.25;27.38;;;14.40;99.90;;;;;;2114239;28;20838;-67
2021/06/07 01:50:17;;;;;;;49.13;27.05;;;14.30;99.90;;;;;;2114843;28;20174;-68
2021/06/07 01:51:17;;;;;;;42.78;25.80;;;14.40;99.90;;;;;;2114724;28;20175;-67
2021/06/07 01:52:18;;;;;;;45.50;26.57;;;14.40;99.90;;;;;;2114002;28;20566;-67
2021/06/07 01:53:22;;;;;;;45.63;27.27;;;14.40;99.90;;;;;;2105615;28;20247;-67
2021/06/07 01:54:23;;;;;;;48.75;26.77;;;14.30;99.90;;;;;;2114340;28;20198;-67
2021/06/07 01:55:30;;;;;;;51.80;28.60;;;14.30;99.90;;;;;;2114823;28;20166;-67
2021/06/07 01:56:31;;;;;;;48.03;27.77;;;14.30;99.90;;;;;;2114937;28;20258;-66
2021/06/07 01:57:32;;;;;;;46.67;26.77;;;14.30;99.90;;;;;;2114715;28;20843;-67
2021/06/07 01:58:34;;;;;;;53.43;29.20;;;14.30;99.90;;;;;;2114142;28;20186;-67
2021/06/07 01:59:36;;;;;;;47.67;28.25;;;14.30;99.90;;;;;;2114168;28;20182;-67
2021/06/07 02:00:43;;;;;;;43.40;25.85;;;14.30;99.90;;;;;;2114835;28;20175;-67
2021/06/07 02:01:43;;;;;;;46.10;26.33;;;14.30;99.90;;;;;;2114304;28;20221;-67
2021/06/07 02:02:46;;;;;;;45.70;26.50;;;14.30;99.90;;;;;;2114520;27;20244;-67
2021/06/07 02:03:48;;;;;;;45.53;26.35;;;14.30;99.90;;;;;;2114635;28;20178;-68
2021/06/07 02:04:50;;;;;;;47.13;26.65;;;14.30;99.90;;;;;;2114866;28;20270;-67
2021/06/07 02:06:00;;;;;;;48.72;27.00;;;14.30;99.90;;;;;;2122503;27;20173;-67
2021/06/07 02:07:01;;;;;;;45.92;27.13;;;14.30;99.90;;;;;;2121560;27;20692;-67
2021/06/07 02:08:07;;;;;;;46.65;27.50;;;14.30;99.90;;;;;;2114569;28;20174;-67
2021/06/07 02:09:08;;;;;;;50.05;27.13;;;14.30;99.90;;;;;;2114769;28;20665;-67
2021/06/07 02:10:10;;;;;;;44.40;26.67;;;14.30;99.90;;;;;;2114589;28;20257;-67
2021/06/07 02:11:27;;;;;;;53.47;28.17;;;14.30;99.90;;;;;;2114567;28;20181;-67
2021/06/07 02:12:28;;;;;;;44.65;25.50;;;14.30;99.90;;;;;;2114259;28;20202;-67
2021/06/07 02:13:29;;;;;;;43.13;25.57;;;14.20;99.90;;;;;;2114724;28;20243;-67
2021/06/07 02:14:29;;;;;;;60.23;28.93;;;14.20;99.90;;;;;;2114611;28;20206;-67
2021/06/07 02:15:30;;;;;;;48.40;26.00;;;14.20;99.90;;;;;;2114732;28;20610;-68
2021/06/07 02:16:37;;;;;;;45.07;25.50;;;14.30;99.90;;;;;;2114566;28;20170;-67
2021/06/07 02:17:39;;;;;;;52.40;29.35;;;14.30;99.90;;;;;;2114680;28;20166;-67
2021/06/07 02:18:41;;;;;;;52.85;28.00;;;14.30;99.90;;;;;;2114493;28;20257;-68
2021/06/07 02:19:47;;;;;;;46.33;26.00;;;14.30;99.90;;;;;;2114661;28;20173;-67
2021/06/07 02:20:48;;;;;;;48.28;27.63;;;14.20;99.90;;;;;;2113954;28;20175;-67
2021/06/07 02:21:49;;;;;;;52.13;28.48;;;14.20;99.90;;;;;;2105686;28;20244;-67
2021/06/07 02:22:50;;;;;;;44.97;24.70;;;14.30;99.90;;;;;;2111373;28;20260;-67
2021/06/07 02:23:52;;;;;;;49.93;26.63;;;14.30;99.90;;;;;;2112957;28;20178;-67
2021/06/07 02:24:53;;;;;;;47.55;26.98;;;14.30;99.90;;;;;;2113811;28;20174;-67
2021/06/07 02:25:56;;;;;;;44.53;25.93;;;14.30;99.90;;;;;;2114618;28;20207;-68
2021/06/07 02:26:56;;;;;;;50.70;26.67;;;14.30;99.90;;;;;;2114564;27;20190;-67
2021/06/07 02:27:57;;;;;;;42.43;24.73;;;14.30;99.90;;;;;;2114692;28;20166;-67
2021/06/07 02:29:08;;;;;;;43.30;25.23;;;14.30;99.90;;;;;;2114483;28;20170;-67
2021/06/07 02:30:21;;;;;;;48.30;27.70;;;14.30;99.90;;;;;;2114513;28;20170;-67
2021/06/07 02:31:23;;;;;;;42.20;25.77;;;14.30;99.90;;;;;;2114519;28;20169;-67
2021/06/07 02:32:24;;;;;;;46.05;25.27;;;14.30;99.90;;;;;;2114245;28;20216;-66
2021/06/07 02:33:26;;;;;;;50.17;26.48;;;14.30;99.90;;;;;;2114278;28;20215;-67
2021/06/07 02:34:26;;;;;;;47.08;26.73;;;14.30;99.90;;;;;;2113980;28;20201;-67
2021/06/07 02:35:27;;;;;;;47.70;25.67;;;14.30;99.90;;;;;;2113717;28;20174;-67
2021/06/07 02:36:31;;;;;;;47.67;27.03;;;14.30;99.90;;;;;;2114510;28;20173;-68
2021/06/07 02:37:32;;;;;;;45.75;26.30;;;14.30;99.90;;;;;;2114454;28;20170;-68
2021/06/07 02:38:32;;;;;;;48.10;26.70;;;14.30;99.90;;;;;;2114500;27;20200;-67
2021/06/07 02:39:33;;;;;;;54.60;28.00;;;14.30;99.90;;;;;;2114340;28;20223;-67
2021/06/07 02:40:34;;;;;;;44.50;25.57;;;14.30;99.90;;;;;;2114396;28;20181;-67
2021/06/07 02:41:38;;;;;;;43.40;25.00;;;14.30;99.90;;;;;;2113790;28;20700;-67
2021/06/07 02:42:41;;;;;;;40.17;23.75;;;14.30;99.90;;;;;;2113581;28;20201;-67
2021/06/07 02:43:42;;;;;;;42.42;23.92;;;14.30;99.90;;;;;;2114450;28;20174;-67
2021/06/07 02:44:43;;;;;;;44.63;25.67;;;14.30;99.90;;;;;;2111418;28;20777;-67
2021/06/07 02:45:44;;;;;;;45.78;25.23;;;14.30;99.90;;;;;;2096844;28;20229;-68
2021/06/07 02:46:45;;;;;;;47.58;26.42;;;14.30;99.90;;;;;;2105217;28;20179;-67
2021/06/07 02:47:49;;;;;;;44.83;24.70;;;14.30;99.90;;;;;;2098223;28;20202;-67
2021/06/07 02:48:50;;;;;;;44.72;25.77;;;14.20;99.90;;;;;;2097612;28;20163;-68
2021/06/07 02:49:51;;;;;;;51.85;27.05;;;14.30;99.90;;;;;;2096978;28;20180;-67
2021/06/07 02:50:52;;;;;;;43.60;24.97;;;14.30;99.90;;;;;;2096828;28;20215;-67
2021/06/07 02:51:53;;;;;;;45.92;26.08;;;14.20;99.90;;;;;;2096919;28;20670;-67
2021/06/07 02:52:55;;;;;;;49.57;27.07;;;14.20;99.90;;;;;;2097284;28;20196;-67
2021/06/07 02:53:56;;;;;;;42.58;24.95;;;14.20;99.90;;;;;;2097528;28;20183;-67
2021/06/07 02:54:56;;;;;;;39.33;23.43;;;14.20;99.90;;;;;;2097609;28;20218;-67
2021/06/07 02:55:58;;;;;;;47.83;25.63;;;14.20;99.90;;;;;;2097713;28;20209;-67
2021/06/07 02:56:59;;;;;;;43.83;24.52;;;14.10;99.90;;;;;;2097608;28;20164;-67
2021/06/07 02:58:00;;;;;;;46.10;26.23;;;14.20;99.90;;;;;;2097593;28;20196;-67
2021/06/07 02:59:02;;;;;;;41.40;24.30;;;14.20;99.90;;;;;;2097056;28;20235;-66
2021/06/07 03:00:04;;;;;;;49.38;27.42;;;14.30;99.90;;;;;;2097075;28;20168;-66
2021/06/07 03:01:08;;;;;;;45.47;26.02;;;14.30;99.90;;;;;;2097554;28;20206;-67
2021/06/07 03:02:09;;;;;;;46.25;26.35;;;14.20;99.90;;;;;;2097401;28;20171;-66
2021/06/07 03:03:11;;;;;;;48.63;25.97;;;14.20;99.90;;;;;;2097442;28;20714;-66
2021/06/07 03:04:12;;;;;;;44.33;24.55;;;14.20;99.90;;;;;;2097517;28;20535;-67
2021/06/07 03:05:13;;;;;;;45.70;25.17;;;14.20;99.90;;;;;;2097602;28;20175;-67
2021/06/07 03:06:14;;;;;;;56.90;28.85;;;14.20;99.90;;;;;;2096869;28;20207;-66
2021/06/07 03:07:15;;;;;;;46.97;24.90;;;14.20;99.90;;;;;;2096876;28;20563;-67
2021/06/07 03:08:19;;;;;;;45.20;25.40;;;14.20;99.90;;;;;;2097426;28;20172;-66
2021/06/07 03:09:20;;;;;;;47.10;25.90;;;14.20;99.90;;;;;;2096937;28;20180;-66
2021/06/07 03:10:21;;;;;;;43.53;24.80;;;14.20;99.90;;;;;;2096854;28;20172;-67
2021/06/07 03:11:21;;;;;;;48.67;25.87;;;14.20;99.90;;;;;;2097471;28;20574;-66
2021/06/07 03:12:22;;;;;;;48.40;26.57;;;14.20;99.90;;;;;;2097060;28;20212;-67
2021/06/07 03:13:24;;;;;;;48.10;25.47;;;14.20;99.90;;;;;;2096675;28;20237;-67
2021/06/07 03:14:25;;;;;;;44.05;25.67;;;14.20;99.90;;;;;;2097389;28;20507;-67
2021/06/07 03:15:27;;;;;;;43.47;24.73;;;14.30;99.90;;;;;;2097443;28;20178;-67
2021/06/07 03:16:28;;;;;;;47.00;25.80;;;14.20;99.90;;;;;;2097340;28;20172;-67
2021/06/07 03:17:29;;;;;;;49.40;26.77;;;14.20;99.90;;;;;;2097414;28;20199;-67
2021/06/07 03:18:30;;;;;;;43.03;24.37;;;14.20;99.90;;;;;;2097235;28;20262;-67
2021/06/07 03:19:31;;;;;;;48.13;26.43;;;14.20;99.90;;;;;;2096805;28;20212;-67
2021/06/07 03:20:33;;;;;;;45.97;26.87;;;14.20;99.90;;;;;;2096681;28;20229;-67
2021/06/07 03:21:34;;;;;;;40.17;23.27;;;14.20;99.90;;;;;;2097386;28;20227;-66
2021/06/07 03:22:35;;;;;;;42.70;24.60;;;14.20;99.90;;;;;;2096853;28;20666;-67
2021/06/07 03:23:39;;;;;;;46.65;27.27;;;14.20;99.90;;;;;;2097231;28;20184;-67
2021/06/07 03:24:40;;;;;;;42.83;24.50;;;14.20;99.90;;;;;;2096600;28;20183;-67
2021/06/07 03:25:43;;;;;;;46.30;25.10;;;14.20;99.90;;;;;;2096749;28;20201;-67
2021/06/07 03:26:44;;;;;;;41.53;24.50;;;14.30;99.90;;;;;;2097260;28;20168;-67
2021/06/07 03:27:45;;;;;;;36.67;23.83;;;14.30;99.90;;;;;;2096666;28;20200;-67
2021/06/07 03:28:45;;;;;;;41.50;24.70;;;14.30;99.90;;;;;;2096580;28;20183;-67
2021/06/07 03:29:46;;;;;;;37.80;24.27;;;14.20;99.90;;;;;;2097363;28;20176;-67
2021/06/07 03:30:50;;;;;;;41.90;24.33;;;14.20;99.90;;;;;;2097233;28;20207;-67
2021/06/07 03:31:52;;;;;;;43.53;24.17;;;14.30;99.90;;;;;;2097281;28;20167;-67
2021/06/07 03:32:53;;;;;;;47.35;26.95;;;14.20;99.90;;;;;;2096952;28;20206;-67
2021/06/07 03:33:54;;;;;;;41.35;24.25;;;14.30;99.90;;;;;;2097259;28;20210;-66
2021/06/07 03:34:55;;;;;;;37.57;24.47;;;14.30;99.90;;;;;;2097199;28;20784;-67
2021/06/07 03:35:58;;;;;;;43.93;24.43;;;14.20;99.90;;;;;;2097346;28;20164;-67
2021/06/07 03:36:58;;;;;;;47.13;26.67;;;14.30;99.90;;;;;;2097230;28;20160;-67
2021/06/07 03:38:00;;;;;;;45.10;25.17;;;14.30;99.90;;;;;;2097257;28;20194;-66
2021/06/07 03:39:03;;;;;;;37.30;23.35;;;14.30;99.90;;;;;;2097116;28;20247;-67
2021/06/07 03:40:09;;;;;;;42.90;24.88;;;14.30;99.90;;;;;;2096625;28;20170;-67
2021/06/07 03:41:09;;;;;;;46.53;25.20;;;14.20;99.90;;;;;;2096625;28;20201;-67
2021/06/07 03:42:10;;;;;;;44.37;24.83;;;14.30;99.90;;;;;;2097189;28;20192;-67
2021/06/07 03:43:11;;;;;;;41.88;24.85;;;14.30;99.90;;;;;;2096346;28;20269;-67
2021/06/07 03:44:12;;;;;;;43.15;24.52;;;14.20;99.90;;;;;;2088355;28;20708;-67
2021/06/07 03:45:15;;;;;;;44.27;25.37;;;14.20;99.90;;;;;;2096470;28;20186;-67
2021/06/07 03:46:16;;;;;;;39.20;24.05;;;14.20;99.90;;;;;;2097349;28;20263;-67
2021/06/07 03:47:17;;;;;;;35.97;23.07;;;14.20;99.90;;;;;;2097120;28;20175;-68
2021/06/07 03:48:18;;;;;;;44.47;23.80;;;14.20;99.90;;;;;;2097294;28;20237;-67
2021/06/07 03:49:18;;;;;;;50.03;25.77;;;14.20;99.90;;;;;;2097080;28;20259;-67
2021/06/07 03:50:24;;;;;;;36.20;22.10;;;14.20;99.90;;;;;;2097007;28;20171;-67
2021/06/07 03:51:24;;;;;;;41.45;24.90;;;14.30;99.90;;;;;;2097114;28;20180;-67
2021/06/07 03:52:26;;;;;;;38.17;22.83;;;14.30;99.90;;;;;;2096096;28;20294;-67
2021/06/07 03:53:26;;;;;;;39.63;23.20;;;14.30;99.90;;;;;;2096421;28;20194;-67
2021/06/07 03:54:27;;;;;;;46.83;24.77;;;14.30;99.90;;;;;;2097259;28;20255;-67
2021/06/07 03:55:29;;;;;;;40.63;23.37;;;14.20;99.90;;;;;;2097061;28;20852;-67
2021/06/07 03:56:30;;;;;;;43.90;23.52;;;14.20;99.90;;;;;;2097089;28;20691;-67
2021/06/07 03:57:30;;;;;;;40.23;23.13;;;14.30;99.90;;;;;;2097162;28;20180;-68
2021/06/07 03:58:31;;;;;;;42.83;24.27;;;14.20;99.90;;;;;;2096562;28;20187;-67
2021/06/07 03:59:32;;;;;;;42.23;24.03;;;14.20;99.90;;;;;;2096487;28;20172;-67
2021/06/07 04:00:36;;;;;;;38.97;22.93;;;14.20;99.90;;;;;;2096991;28;20421;-67
2021/06/07 04:01:37;;;;;;;37.65;21.88;;;14.30;99.90;;;;;;2097137;28;20245;-67
2021/06/07 04:02:39;;;;;;;34.83;22.07;;;14.30;99.90;;;;;;2096121;28;20221;-67
2021/06/07 04:03:39;;;;;;;34.05;21.88;;;14.30;99.90;;;;;;2096566;28;20180;-67
2021/06/07 04:04:42;;;;;;;40.43;23.77;;;14.30;99.90;;;;;;2097024;28;20168;-67
2021/06/07 04:05:43;;;;;;;31.40;20.50;;;14.30;99.90;;;;;;2097184;28;20861;-67
2021/06/07 04:06:44;;;;;;;35.73;22.60;;;14.30;99.90;;;;;;2096393;28;20283;-67
2021/06/07 04:07:45;;;;;;;33.40;20.33;;;14.30;99.90;;;;;;2096471;28;20173;-67
2021/06/07 04:08:46;;;;;;;33.85;21.42;;;14.30;99.90;;;;;;2096996;28;20184;-67
2021/06/07 04:09:48;;;;;;;35.00;21.25;;;14.30;99.90;;;;;;2097100;28;20175;-67
2021/06/07 04:10:49;;;;;;;38.00;22.63;;;14.30;99.90;;;;;;2097038;28;20714;-67
2021/06/07 04:11:50;;;;;;;35.43;22.50;;;14.30;99.90;;;;;;2097096;28;20175;-67
2021/06/07 04:12:51;;;;;;;35.90;21.92;;;14.30;99.90;;;;;;2096652;28;20215;-67
2021/06/07 04:13:52;;;;;;;41.28;22.83;;;14.40;99.90;;;;;;2096581;28;20164;-67
2021/06/07 04:14:53;;;;;;;37.10;21.23;;;14.40;99.90;;;;;;2096413;28;20199;-67
2021/06/07 04:15:54;;;;;;;35.73;21.87;;;14.40;99.90;;;;;;2096394;28;20262;-67
2021/06/07 04:16:54;;;;;;;36.60;21.50;;;14.30;99.90;;;;;;2096279;28;20507;-67
2021/06/07 04:17:57;;;;;;;34.13;21.43;;;14.40;99.90;;;;;;2097192;28;20175;-67
2021/06/07 04:18:58;;;;;;;37.00;22.20;;;14.30;99.90;;;;;;2096367;28;20160;-67
2021/06/07 04:19:58;;;;;;;35.47;21.10;;;14.30;99.90;;;;;;2096481;28;20508;-67
2021/06/07 04:20:59;;;;;;;35.70;21.30;;;14.40;99.90;;;;;;2096999;28;20168;-67
2021/06/07 04:22:00;;;;;;;38.77;21.87;;;14.40;99.90;;;;;;2096358;28;20511;-67
2021/06/07 04:23:01;;;;;;;35.20;21.40;;;14.50;99.90;;;;;;2096120;28;20184;-68
2021/06/07 04:24:02;;;;;;;32.13;20.30;;;14.50;99.90;;;;;;2105786;28;20162;-67
2021/06/07 04:25:05;;;;;;;31.80;20.03;;;14.50;99.90;;;;;;2106200;28;20167;-67
2021/06/07 04:26:06;;;;;;;32.22;19.83;;;14.50;99.90;;;;;;2106412;28;20178;-67
2021/06/07 04:27:09;;;;;;;34.70;20.83;;;14.50;99.90;;;;;;2106343;28;20548;-67
2021/06/07 04:28:10;;;;;;;32.92;20.33;;;14.50;99.90;;;;;;2107195;28;20163;-67
2021/06/07 04:29:10;;;;;;;30.50;19.57;;;14.50;99.90;;;;;;2107132;28;20648;-67
2021/06/07 04:30:19;;;;;;;29.70;19.57;;;14.50;99.90;;;;;;2106632;28;20752;-67
2021/06/07 04:31:19;;;;;;;29.50;19.67;;;14.50;99.90;;;;;;2106388;28;20223;-67
2021/06/07 04:32:20;;;;;;;30.47;20.13;;;14.50;99.90;;;;;;2106913;28;20250;-67
2021/06/07 04:33:22;;;;;;;28.90;18.60;;;14.50;99.90;;;;;;2106140;28;20201;-67
2021/06/07 04:34:22;;;;;;;27.98;18.60;;;14.50;99.90;;;;;;2106435;28;20179;-67
2021/06/07 04:35:24;;;;;;;29.27;18.37;;;14.60;99.90;;;;;;2106916;28;20207;-67
2021/06/07 04:36:25;;;;;;;27.35;18.65;;;14.60;99.90;;;;;;2107054;28;20167;-67
2021/06/07 04:37:25;;;;;;;28.80;18.87;;;14.60;99.90;;;;;;2107022;28;20630;-67
2021/06/07 04:38:26;;;;;;;28.60;17.87;;;14.50;99.90;;;;;;2106965;28;20196;-67
2021/06/07 04:39:27;;;;;;;27.73;19.10;;;14.50;99.90;;;;;;2107042;28;21190;-67
2021/06/07 04:40:36;;;;;;;26.37;18.43;;;14.50;99.90;;;;;;2107032;28;20233;-67
2021/06/07 04:41:37;;;;;;;25.88;17.73;;;14.60;99.90;;;;;;2106982;28;20174;-67
2021/06/07 04:42:39;;;;;;;26.52;17.17;;;14.50;99.90;;;;;;2106714;28;20194;-67
2021/06/07 04:43:39;;;;;;;26.90;17.75;;;14.60;99.90;;;;;;2106834;28;20178;-67
2021/06/07 04:44:40;;;;;;;27.67;18.00;;;14.60;99.90;;;;;;2106416;28;20559;-67
2021/06/07 04:45:44;;;;;;;25.67;16.80;;;14.60;99.90;;;;;;2098367;28;20259;-67
2021/06/07 04:46:44;;;;;;;21.65;15.63;;;14.60;99.90;;;;;;2098683;28;20253;-67
2021/06/07 04:47:46;;;;;;;24.87;16.83;;;14.60;99.90;;;;;;2106611;28;20183;-67
2021/06/07 04:48:47;;;;;;;25.88;16.65;;;14.70;99.90;;;;;;2106420;28;20199;-67
2021/06/07 04:49:47;;;;;;;25.73;17.23;;;14.70;99.90;;;;;;2106321;28;20179;-67
2021/06/07 04:50:48;;;;;;;23.10;16.27;;;14.60;99.90;;;;;;2106915;28;20183;-67
2021/06/07 04:51:49;;;;;;;26.33;16.77;;;14.60;99.90;;;;;;2107011;28;20520;-67
2021/06/07 04:52:58;;;;;;;25.83;17.00;;;14.60;99.90;;;;;;2106623;28;20211;-67
2021/06/07 04:53:59;;;;;;;22.88;15.60;;;14.60;99.90;;;;;;2099928;28;20426;-67
2021/06/07 04:54:59;;;;;;;29.53;18.67;;;14.60;99.90;;;;;;2098522;28;20668;-67
2021/06/07 04:56:00;;;;;;;30.53;18.80;;;14.60;99.90;;;;;;2098427;28;20598;-67
2021/06/07 04:57:01;;;;;;;27.57;17.77;;;14.50;99.90;;;;;;2098587;28;20255;-67
2021/06/07 04:58:07;;;;;;;26.17;17.97;;;14.50;99.90;;;;;;2098428;28;20179;-67
2021/06/07 04:59:07;;;;;;;28.85;18.63;;;14.60;99.90;;;;;;2097974;28;20213;-67
2021/06/07 05:00:09;;;;;;;30.13;18.57;;;14.60;99.90;;;;;;2097727;28;20695;-67
2021/06/07 05:01:12;;;;;;;28.30;17.77;;;14.60;99.90;;;;;;2098456;28;20171;-68
2021/06/07 05:02:13;;;;;;;23.83;17.20;;;14.60;99.90;;;;;;2097663;28;20168;-67
2021/06/07 05:03:15;;;;;;;25.57;17.23;;;14.60;99.90;;;;;;2089754;28;20188;-67
2021/06/07 05:04:16;;;;;;;24.67;16.55;;;14.70;99.90;;;;;;2089563;28;20179;-67
2021/06/07 05:05:18;;;;;;;21.87;15.43;;;14.70;99.90;;;;;;2097730;28;20237;-68
2021/06/07 05:06:18;;;;;;;22.05;14.85;;;14.70;99.90;;;;;;2098368;28;20168;-67
2021/06/07 05:07:19;;;;;;;21.23;14.37;;;14.70;99.90;;;;;;2098374;28;20178;-67
2021/06/07 05:08:20;;;;;;;22.63;15.60;;;14.80;99.90;;;;;;2098509;28;20172;-68
2021/06/07 05:09:21;;;;;;;21.90;15.70;;;14.70;99.90;;;;;;2098217;28;20177;-67
2021/06/07 05:10:22;;;;;;;22.37;14.90;;;14.70;99.90;;;;;;2098292;28;20164;-67
2021/06/07 05:11:23;;;;;;;21.70;15.40;;;14.70;99.90;;;;;;2098186;28;20612;-67
2021/06/07 05:12:24;;;;;;;22.67;15.30;;;14.70;99.90;;;;;;2098070;28;20219;-67
2021/06/07 05:13:26;;;;;;;21.77;14.80;;;14.80;99.90;;;;;;2098131;28;20605;-67
2021/06/07 05:14:27;;;;;;;22.90;15.55;;;14.70;99.90;;;;;;2097751;28;21297;-67